sensor_id;sensor_type;location;lat;lon;timestamp;pressure;altitude;pressure_sealevel;temperature;humidity
80137;BME280;69466;55.948;37.484;2023-04-25T00:02:21;99289.56;;;13.23;38.18
80137;BME280;69466;55.948;37.484;2023-04-25T00:04:47;99297.97;;;13.21;37.61
80137;BME280;69466;55.948;37.484;2023-04-25T00:07:14;99297.13;;;13.21;37.28
80137;BME280;69466;55.948;37.484;2023-04-25T00:09:41;99299.03;;;13.20;37.29
80137;BME280;69466;55.948;37.484;2023-04-25T00:12:07;99302.13;;;13.24;37.31
80137;BME280;69466;55.948;37.484;2023-04-25T00:14:34;99303.75;;;13.25;37.26
80137;BME280;69466;55.948;37.484;2023-04-25T00:17:01;99306.97;;;13.22;37.33
80137;BME280;69466;55.948;37.484;2023-04-25T00:19:28;99308.88;;;13.21;37.71
80137;BME280;69466;55.948;37.484;2023-04-25T00:21:55;99303.91;;;13.18;37.65
80137;BME280;69466;55.948;37.484;2023-04-25T00:24:21;99313.50;;;13.21;37.80
80137;BME280;69466;55.948;37.484;2023-04-25T00:26:46;99313.16;;;13.17;37.90
80137;BME280;69466;55.948;37.484;2023-04-25T00:29:13;99312.56;;;13.15;37.74
80137;BME280;69466;55.948;37.484;2023-04-25T00:31:39;99305.72;;;13.13;38.30
80137;BME280;69466;55.948;37.484;2023-04-25T00:34:06;99302.41;;;13.11;38.38
80137;BME280;69466;55.948;37.484;2023-04-25T00:36:32;99314.94;;;13.12;38.32
80137;BME280;69466;55.948;37.484;2023-04-25T00:38:58;99305.13;;;13.11;38.74
80137;BME280;69466;55.948;37.484;2023-04-25T00:41:25;99312.69;;;13.09;38.88
80137;BME280;69466;55.948;37.484;2023-04-25T00:43:53;99303.59;;;13.03;39.64
80137;BME280;69466;55.948;37.484;2023-04-25T00:46:20;99303.25;;;13.00;39.59
80137;BME280;69466;55.948;37.484;2023-04-25T00:48:45;99310.94;;;13.03;39.48
80137;BME280;69466;55.948;37.484;2023-04-25T00:51:16;99319.94;;;13.03;39.75
80137;BME280;69466;55.948;37.484;2023-04-25T00:53:45;99324.22;;;12.99;40.16
80137;BME280;69466;55.948;37.484;2023-04-25T00:56:11;99330.50;;;13.00;40.19
80137;BME280;69466;55.948;37.484;2023-04-25T00:58:37;99327.16;;;12.98;39.99
80137;BME280;69466;55.948;37.484;2023-04-25T01:01:04;99330.16;;;12.96;40.35
80137;BME280;69466;55.948;37.484;2023-04-25T01:03:32;99321.28;;;12.89;40.71
80137;BME280;69466;55.948;37.484;2023-04-25T01:06:01;99327.56;;;12.89;41.09
80137;BME280;69466;55.948;37.484;2023-04-25T01:08:28;99316.56;;;12.84;41.07
80137;BME280;69466;55.948;37.484;2023-04-25T01:10:54;99315.72;;;12.84;41.02
80137;BME280;69466;55.948;37.484;2023-04-25T01:13:20;99324.16;;;12.82;41.30
80137;BME280;69466;55.948;37.484;2023-04-25T01:15:45;99325.31;;;12.86;41.26
80137;BME280;69466;55.948;37.484;2023-04-25T01:18:12;99319.03;;;12.86;41.25
80137;BME280;69466;55.948;37.484;2023-04-25T01:20:39;99317.63;;;12.83;41.55
80137;BME280;69466;55.948;37.484;2023-04-25T01:23:07;99316.56;;;12.84;41.93
80137;BME280;69466;55.948;37.484;2023-04-25T01:25:33;99316.56;;;12.84;41.87
80137;BME280;69466;55.948;37.484;2023-04-25T01:27:59;99310.88;;;12.86;42.26
80137;BME280;69466;55.948;37.484;2023-04-25T01:30:26;99305.66;;;12.84;42.92
80137;BME280;69466;55.948;37.484;2023-04-25T01:32:56;99304.00;;;12.83;43.20
80137;BME280;69466;55.948;37.484;2023-04-25T01:35:23;99301.28;;;12.83;43.03
80137;BME280;69466;55.948;37.484;2023-04-25T01:37:52;99301.19;;;12.78;43.86
80137;BME280;69466;55.948;37.484;2023-04-25T01:40:20;99299.09;;;12.69;45.08
80137;BME280;69466;55.948;37.484;2023-04-25T01:42:49;99305.25;;;12.64;45.10
80137;BME280;69466;55.948;37.484;2023-04-25T01:45:15;99307.38;;;12.62;44.45
80137;BME280;69466;55.948;37.484;2023-04-25T01:47:41;99309.28;;;12.62;45.08
80137;BME280;69466;55.948;37.484;2023-04-25T01:50:10;99303.00;;;12.61;45.20
80137;BME280;69466;55.948;37.484;2023-04-25T01:52:37;99320.63;;;12.70;43.25
80137;BME280;69466;55.948;37.484;2023-04-25T01:55:06;99317.78;;;12.77;43.22
80137;BME280;69466;55.948;37.484;2023-04-25T01:57:34;99303.78;;;12.85;42.95
80137;BME280;69466;55.948;37.484;2023-04-25T02:00:04;99307.56;;;12.84;44.75
80137;BME280;69466;55.948;37.484;2023-04-25T02:02:39;99303.94;;;12.78;45.51
80137;BME280;69466;55.948;37.484;2023-04-25T02:05:12;99312.56;;;12.75;44.61
80137;BME280;69466;55.948;37.484;2023-04-25T02:07:39;99309.09;;;12.80;43.54
80137;BME280;69466;55.948;37.484;2023-04-25T02:10:06;99304.38;;;12.87;43.39
80137;BME280;69466;55.948;37.484;2023-04-25T02:12:39;99309.91;;;12.92;44.84
80137;BME280;69466;55.948;37.484;2023-04-25T02:15:31;99310.97;;;12.91;46.46
80137;BME280;69466;55.948;37.484;2023-04-25T02:18:28;99306.59;;;12.90;44.09
80137;BME280;69466;55.948;37.484;2023-04-25T02:20:54;99308.09;;;12.98;42.97
80137;BME280;69466;55.948;37.484;2023-04-25T02:23:20;99302.94;;;12.84;47.83
80137;BME280;69466;55.948;37.484;2023-04-25T02:25:46;99316.22;;;12.81;47.91
80137;BME280;69466;55.948;37.484;2023-04-25T02:28:13;99311.38;;;12.71;49.04
80137;BME280;69466;55.948;37.484;2023-04-25T02:30:38;99306.56;;;12.62;49.65
80137;BME280;69466;55.948;37.484;2023-04-25T02:33:04;99303.16;;;12.55;50.38
80137;BME280;69466;55.948;37.484;2023-04-25T02:35:30;99302.56;;;12.53;50.82
80137;BME280;69466;55.948;37.484;2023-04-25T02:37:57;99298.19;;;12.40;51.07
80137;BME280;69466;55.948;37.484;2023-04-25T02:40:23;99297.97;;;12.41;51.05
80137;BME280;69466;55.948;37.484;2023-04-25T02:42:49;99294.88;;;12.38;50.46
80137;BME280;69466;55.948;37.484;2023-04-25T02:45:15;99301.41;;;12.37;50.36
80137;BME280;69466;55.948;37.484;2023-04-25T02:47:41;99300.44;;;12.43;49.85
80137;BME280;69466;55.948;37.484;2023-04-25T02:50:07;99290.59;;;12.42;50.56
80137;BME280;69466;55.948;37.484;2023-04-25T02:52:33;99288.00;;;12.47;49.80
80137;BME280;69466;55.948;37.484;2023-04-25T02:55:08;99293.84;;;12.79;48.98
80137;BME280;69466;55.948;37.484;2023-04-25T02:57:35;99306.19;;;13.10;47.89
80137;BME280;69466;55.948;37.484;2023-04-25T03:00:01;99325.72;;;13.63;46.33
80137;BME280;69466;55.948;37.484;2023-04-25T03:02:29;99278.47;;;14.46;39.79
80137;BME280;69466;55.948;37.484;2023-04-25T03:04:55;99270.78;;;15.14;36.97
80137;BME280;69466;55.948;37.484;2023-04-25T03:07:21;99247.47;;;15.33;39.55
80137;BME280;69466;55.948;37.484;2023-04-25T03:09:48;99268.41;;;15.49;39.20
80137;BME280;69466;55.948;37.484;2023-04-25T03:12:14;99271.81;;;15.93;38.54
80137;BME280;69466;55.948;37.484;2023-04-25T03:14:40;99270.09;;;16.24;37.93
80137;BME280;69466;55.948;37.484;2023-04-25T03:17:05;99264.81;;;16.54;37.69
80137;BME280;69466;55.948;37.484;2023-04-25T03:19:34;99273.09;;;16.64;38.04
80137;BME280;69466;55.948;37.484;2023-04-25T03:22:00;99285.88;;;16.54;37.31
80137;BME280;69466;55.948;37.484;2023-04-25T03:24:26;99284.41;;;16.31;37.43
80137;BME280;69466;55.948;37.484;2023-04-25T03:26:52;99287.56;;;16.13;37.75
80137;BME280;69466;55.948;37.484;2023-04-25T03:29:18;99290.56;;;16.11;37.71
80137;BME280;69466;55.948;37.484;2023-04-25T03:31:46;99296.47;;;16.35;37.51
80137;BME280;69466;55.948;37.484;2023-04-25T03:34:11;99292.06;;;16.34;37.67
80137;BME280;69466;55.948;37.484;2023-04-25T03:36:40;99297.03;;;16.42;37.58
80137;BME280;69466;55.948;37.484;2023-04-25T03:39:06;99296.53;;;16.50;37.50
80137;BME280;69466;55.948;37.484;2023-04-25T03:41:33;99289.66;;;16.42;37.49
80137;BME280;69466;55.948;37.484;2023-04-25T03:44:06;99299.00;;;16.52;37.78
80137;BME280;69466;55.948;37.484;2023-04-25T03:46:32;99299.78;;;16.42;37.77
80137;BME280;69466;55.948;37.484;2023-04-25T03:48:58;99292.72;;;16.51;37.66
80137;BME280;69466;55.948;37.484;2023-04-25T03:51:34;99298.81;;;16.58;37.45
80137;BME280;69466;55.948;37.484;2023-04-25T03:54:01;99294.41;;;16.57;37.41
80137;BME280;69466;55.948;37.484;2023-04-25T03:56:30;99287.88;;;16.58;37.33
80137;BME280;69466;55.948;37.484;2023-04-25T03:59:03;99293.69;;;16.82;36.92
80137;BME280;69466;55.948;37.484;2023-04-25T04:01:30;99275.97;;;17.00;37.15
80137;BME280;69466;55.948;37.484;2023-04-25T04:03:56;99282.31;;;17.20;36.56
80137;BME280;69466;55.948;37.484;2023-04-25T04:06:23;99292.78;;;17.34;36.58
80137;BME280;69466;55.948;37.484;2023-04-25T04:08:55;99288.97;;;18.10;35.31
80137;BME280;69466;55.948;37.484;2023-04-25T04:11:24;99284.47;;;18.70;34.28
80137;BME280;69466;55.948;37.484;2023-04-25T04:13:49;99281.94;;;18.84;33.50
80137;BME280;69466;55.948;37.484;2023-04-25T04:16:16;99275.25;;;19.10;32.74
80137;BME280;69466;55.948;37.484;2023-04-25T04:18:42;99281.69;;;19.34;32.40
80137;BME280;69466;55.948;37.484;2023-04-25T04:21:09;99289.06;;;19.49;32.72
80137;BME280;69466;55.948;37.484;2023-04-25T04:23:38;99280.56;;;20.42;30.68
80137;BME280;69466;55.948;37.484;2023-04-25T04:26:05;99274.81;;;21.47;28.90
80137;BME280;69466;55.948;37.484;2023-04-25T04:29:11;99271.19;;;22.49;27.08
80137;BME280;69466;55.948;37.484;2023-04-25T04:31:56;99266.97;;;22.65;26.89
80137;BME280;69466;55.948;37.484;2023-04-25T04:34:23;99263.09;;;22.66;26.86
80137;BME280;69466;55.948;37.484;2023-04-25T04:36:52;99261.72;;;23.32;25.99
80137;BME280;69466;55.948;37.484;2023-04-25T04:39:22;99277.69;;;23.93;25.07
80137;BME280;69466;55.948;37.484;2023-04-25T04:41:59;99262.22;;;24.85;24.30
80137;BME280;69466;55.948;37.484;2023-04-25T04:44:56;99259.28;;;25.81;22.36
80137;BME280;69466;55.948;37.484;2023-04-25T04:47:42;99273.19;;;25.64;22.65
80137;BME280;69466;55.948;37.484;2023-04-25T04:50:33;99274.97;;;25.68;23.02
80137;BME280;69466;55.948;37.484;2023-04-25T04:53:05;99270.56;;;25.58;22.71
80137;BME280;69466;55.948;37.484;2023-04-25T04:55:49;99260.53;;;25.23;22.75
80137;BME280;69466;55.948;37.484;2023-04-25T04:58:28;99257.50;;;24.46;23.48
80137;BME280;69466;55.948;37.484;2023-04-25T05:01:19;99272.16;;;24.77;23.10
80137;BME280;69466;55.948;37.484;2023-04-25T05:04:14;99265.59;;;24.11;24.78
80137;BME280;69466;55.948;37.484;2023-04-25T05:06:55;99267.06;;;23.64;25.95
80137;BME280;69466;55.948;37.484;2023-04-25T05:09:39;99277.91;;;23.25;26.80
80137;BME280;69466;55.948;37.484;2023-04-25T05:12:13;99274.09;;;22.25;27.78
80137;BME280;69466;55.948;37.484;2023-04-25T05:14:49;99279.31;;;21.43;29.33
80137;BME280;69466;55.948;37.484;2023-04-25T05:17:35;99278.19;;;21.63;29.27
80137;BME280;69466;55.948;37.484;2023-04-25T05:20:21;99272.09;;;22.44;28.12
80137;BME280;69466;55.948;37.484;2023-04-25T05:23:02;99272.22;;;23.08;27.73
80137;BME280;69466;55.948;37.484;2023-04-25T05:26:04;99258.81;;;23.95;26.40
80137;BME280;69466;55.948;37.484;2023-04-25T05:28:49;99261.63;;;24.57;25.40
80137;BME280;69466;55.948;37.484;2023-04-25T05:31:36;99252.72;;;25.34;24.45
80137;BME280;69466;55.948;37.484;2023-04-25T05:34:23;99268.94;;;25.83;23.70
80137;BME280;69466;55.948;37.484;2023-04-25T05:36:54;99265.00;;;25.84;23.58
80137;BME280;69466;55.948;37.484;2023-04-25T05:39:21;99262.78;;;26.41;22.97
80137;BME280;69466;55.948;37.484;2023-04-25T05:42:05;99263.47;;;26.76;22.54
80137;BME280;69466;55.948;37.484;2023-04-25T05:44:49;99276.25;;;26.14;22.82
80137;BME280;69466;55.948;37.484;2023-04-25T05:47:23;99277.56;;;25.39;23.86
80137;BME280;69466;55.948;37.484;2023-04-25T05:50:06;99269.47;;;24.55;24.75
80137;BME280;69466;55.948;37.484;2023-04-25T05:53:10;99264.13;;;24.76;24.55
80137;BME280;69466;55.948;37.484;2023-04-25T05:55:41;99267.38;;;24.07;25.29
80137;BME280;69466;55.948;37.484;2023-04-25T05:58:26;99264.94;;;22.98;26.76
80137;BME280;69466;55.948;37.484;2023-04-25T06:00:53;99269.25;;;22.49;27.67
80137;BME280;69466;55.948;37.484;2023-04-25T06:03:19;99272.59;;;22.46;27.45
80137;BME280;69466;55.948;37.484;2023-04-25T06:05:45;99270.28;;;22.81;26.81
80137;BME280;69466;55.948;37.484;2023-04-25T06:08:11;99259.13;;;23.49;26.08
80137;BME280;69466;55.948;37.484;2023-04-25T06:10:37;99252.38;;;24.31;24.99
80137;BME280;69466;55.948;37.484;2023-04-25T06:13:04;99256.75;;;25.02;24.21
80137;BME280;69466;55.948;37.484;2023-04-25T06:15:31;99249.47;;;25.57;23.57
80137;BME280;69466;55.948;37.484;2023-04-25T06:17:59;99245.97;;;26.03;23.15
80137;BME280;69466;55.948;37.484;2023-04-25T06:20:24;99243.69;;;26.69;22.30
80137;BME280;69466;55.948;37.484;2023-04-25T06:22:51;99234.03;;;27.25;21.63
80137;BME280;69466;55.948;37.484;2023-04-25T06:25:18;99236.44;;;27.77;20.61
80137;BME280;69466;55.948;37.484;2023-04-25T06:27:45;99232.22;;;28.04;20.65
80137;BME280;69466;55.948;37.484;2023-04-25T06:30:12;99227.28;;;28.22;20.37
80137;BME280;69466;55.948;37.484;2023-04-25T06:32:38;99231.19;;;28.53;19.89
80137;BME280;69466;55.948;37.484;2023-04-25T06:35:06;99229.78;;;28.47;19.23
80137;BME280;69466;55.948;37.484;2023-04-25T06:37:32;99227.28;;;28.91;18.92
80137;BME280;69466;55.948;37.484;2023-04-25T06:39:58;99230.34;;;29.26;18.91
80137;BME280;69466;55.948;37.484;2023-04-25T06:42:24;99218.91;;;29.55;18.85
80137;BME280;69466;55.948;37.484;2023-04-25T06:44:57;99217.06;;;29.75;18.48
80137;BME280;69466;55.948;37.484;2023-04-25T06:47:23;99222.78;;;29.26;18.78
80137;BME280;69466;55.948;37.484;2023-04-25T06:49:49;99224.13;;;29.57;18.58
80137;BME280;69466;55.948;37.484;2023-04-25T06:52:15;99227.22;;;29.67;18.15
80137;BME280;69466;55.948;37.484;2023-04-25T06:54:44;99218.56;;;29.44;17.90
80137;BME280;69466;55.948;37.484;2023-04-25T06:57:26;99221.41;;;30.00;17.69
80137;BME280;69466;55.948;37.484;2023-04-25T06:59:53;99222.53;;;29.83;17.81
80137;BME280;69466;55.948;37.484;2023-04-25T07:02:19;99228.06;;;29.68;17.76
80137;BME280;69466;55.948;37.484;2023-04-25T07:04:48;99228.84;;;29.28;17.38
80137;BME280;69466;55.948;37.484;2023-04-25T07:07:14;99220.97;;;29.58;17.28
80137;BME280;69466;55.948;37.484;2023-04-25T07:09:52;99218.31;;;29.89;17.27
80137;BME280;69466;55.948;37.484;2023-04-25T07:12:18;99219.94;;;29.90;16.97
80137;BME280;69466;55.948;37.484;2023-04-25T07:14:44;99217.97;;;30.07;16.72
80137;BME280;69466;55.948;37.484;2023-04-25T07:17:10;99221.78;;;29.86;16.81
80137;BME280;69466;55.948;37.484;2023-04-25T07:19:36;99227.28;;;29.83;16.33
80137;BME280;69466;55.948;37.484;2023-04-25T07:22:05;99228.66;;;29.61;16.61
80137;BME280;69466;55.948;37.484;2023-04-25T07:24:33;99217.59;;;29.65;16.59
80137;BME280;69466;55.948;37.484;2023-04-25T07:26:59;99225.25;;;29.28;17.26
80137;BME280;69466;55.948;37.484;2023-04-25T07:29:34;99230.22;;;29.46;16.42
80137;BME280;69466;55.948;37.484;2023-04-25T07:32:02;99219.00;;;29.59;16.70
80137;BME280;69466;55.948;37.484;2023-04-25T07:34:29;99214.97;;;29.72;16.55
80137;BME280;69466;55.948;37.484;2023-04-25T07:36:56;99216.78;;;29.92;16.75
80137;BME280;69466;55.948;37.484;2023-04-25T07:39:25;99212.84;;;29.53;17.23
80137;BME280;69466;55.948;37.484;2023-04-25T07:41:51;99202.56;;;29.85;16.38
80137;BME280;69466;55.948;37.484;2023-04-25T07:44:22;99201.22;;;30.22;16.04
80137;BME280;69466;55.948;37.484;2023-04-25T07:46:48;99213.88;;;30.32;15.80
80137;BME280;69466;55.948;37.484;2023-04-25T07:49:15;99206.75;;;30.50;15.93
80137;BME280;69466;55.948;37.484;2023-04-25T07:51:43;99206.63;;;30.15;17.15
80137;BME280;69466;55.948;37.484;2023-04-25T07:54:14;99208.84;;;29.94;17.33
80137;BME280;69466;55.948;37.484;2023-04-25T07:56:44;99206.16;;;29.58;17.27
80137;BME280;69466;55.948;37.484;2023-04-25T07:59:10;99216.66;;;29.08;16.44
80137;BME280;69466;55.948;37.484;2023-04-25T08:01:37;99216.53;;;28.93;16.84
80137;BME280;69466;55.948;37.484;2023-04-25T08:04:05;99221.66;;;28.79;16.63
80137;BME280;69466;55.948;37.484;2023-04-25T08:06:53;99216.97;;;28.46;17.38
80137;BME280;69466;55.948;37.484;2023-04-25T08:09:23;99215.19;;;27.02;18.79
80137;BME280;69466;55.948;37.484;2023-04-25T08:11:51;99210.41;;;26.73;19.91
80137;BME280;69466;55.948;37.484;2023-04-25T08:14:22;99213.72;;;26.20;20.50
80137;BME280;69466;55.948;37.484;2023-04-25T08:16:48;99201.88;;;26.40;20.59
80137;BME280;69466;55.948;37.484;2023-04-25T08:19:15;99207.72;;;26.00;20.47
80137;BME280;69466;55.948;37.484;2023-04-25T08:21:40;99205.66;;;25.54;21.42
80137;BME280;69466;55.948;37.484;2023-04-25T08:24:11;99218.03;;;24.88;21.87
80137;BME280;69466;55.948;37.484;2023-04-25T08:26:39;99213.81;;;24.20;23.16
80137;BME280;69466;55.948;37.484;2023-04-25T08:29:06;99210.16;;;23.22;24.70
80137;BME280;69466;55.948;37.484;2023-04-25T08:31:32;99215.25;;;23.29;24.77
80137;BME280;69466;55.948;37.484;2023-04-25T08:34:01;99209.47;;;23.03;24.99
80137;BME280;69466;55.948;37.484;2023-04-25T08:36:36;99216.16;;;22.88;24.40
80137;BME280;69466;55.948;37.484;2023-04-25T08:39:02;99202.13;;;22.58;24.65
80137;BME280;69466;55.948;37.484;2023-04-25T08:41:29;99200.00;;;22.54;25.11
80137;BME280;69466;55.948;37.484;2023-04-25T08:43:56;99191.19;;;22.39;24.88
80137;BME280;69466;55.948;37.484;2023-04-25T08:46:23;99208.22;;;22.00;25.29
80137;BME280;69466;55.948;37.484;2023-04-25T08:49:17;99201.28;;;21.70;25.53
80137;BME280;69466;55.948;37.484;2023-04-25T08:51:46;99211.13;;;21.44;25.80
80137;BME280;69466;55.948;37.484;2023-04-25T08:54:14;99194.66;;;21.20;26.24
80137;BME280;69466;55.948;37.484;2023-04-25T08:56:44;99218.38;;;21.21;26.43
80137;BME280;69466;55.948;37.484;2023-04-25T08:59:11;99206.81;;;20.95;27.73
80137;BME280;69466;55.948;37.484;2023-04-25T09:01:37;99205.75;;;20.72;28.29
80137;BME280;69466;55.948;37.484;2023-04-25T09:04:05;99195.06;;;20.71;28.63
80137;BME280;69466;55.948;37.484;2023-04-25T09:06:33;99184.44;;;20.59;28.56
80137;BME280;69466;55.948;37.484;2023-04-25T09:09:06;99209.06;;;20.51;29.39
80137;BME280;69466;55.948;37.484;2023-04-25T09:11:34;99185.63;;;20.72;28.94
80137;BME280;69466;55.948;37.484;2023-04-25T09:14:15;99189.16;;;20.96;28.62
80137;BME280;69466;55.948;37.484;2023-04-25T09:17:05;99204.75;;;21.06;28.96
80137;BME280;69466;55.948;37.484;2023-04-25T09:19:51;99176.81;;;21.12;27.89
80137;BME280;69466;55.948;37.484;2023-04-25T09:22:27;99168.13;;;21.00;28.32
80137;BME280;69466;55.948;37.484;2023-04-25T09:24:53;99173.59;;;21.05;28.49
80137;BME280;69466;55.948;37.484;2023-04-25T09:27:22;99168.44;;;21.17;28.15
80137;BME280;69466;55.948;37.484;2023-04-25T09:30:15;99173.06;;;21.22;27.97
80137;BME280;69466;55.948;37.484;2023-04-25T09:33:08;99176.91;;;21.26;27.71
80137;BME280;69466;55.948;37.484;2023-04-25T09:38:13;99153.63;;;21.13;27.76
80137;BME280;69466;55.948;37.484;2023-04-25T09:40:52;99159.94;;;20.95;27.94
80137;BME280;69466;55.948;37.484;2023-04-25T09:43:39;99163.19;;;21.21;27.93
80137;BME280;69466;55.948;37.484;2023-04-25T09:46:09;99151.69;;;21.14;27.39
80137;BME280;69466;55.948;37.484;2023-04-25T09:48:40;99161.22;;;21.03;27.82
80137;BME280;69466;55.948;37.484;2023-04-25T09:51:10;99160.00;;;20.90;28.59
80137;BME280;69466;55.948;37.484;2023-04-25T09:53:39;99157.63;;;20.84;28.38
80137;BME280;69466;55.948;37.484;2023-04-25T09:56:14;99143.03;;;20.83;28.45
80137;BME280;69466;55.948;37.484;2023-04-25T09:58:41;99146.59;;;20.84;28.53
80137;BME280;69466;55.948;37.484;2023-04-25T10:01:09;99144.34;;;20.86;28.68
80137;BME280;69466;55.948;37.484;2023-04-25T10:03:48;99159.44;;;21.12;28.31
80137;BME280;69466;55.948;37.484;2023-04-25T10:06:34;99153.22;;;21.01;28.26
80137;BME280;69466;55.948;37.484;2023-04-25T10:09:02;99138.63;;;21.19;28.37
80137;BME280;69466;55.948;37.484;2023-04-25T10:11:30;99152.47;;;20.96;28.51
80137;BME280;69466;55.948;37.484;2023-04-25T10:13:57;99153.69;;;21.27;28.87
80137;BME280;69466;55.948;37.484;2023-04-25T10:16:24;99142.72;;;21.22;28.72
80137;BME280;69466;55.948;37.484;2023-04-25T10:18:50;99141.22;;;21.30;28.76
80137;BME280;69466;55.948;37.484;2023-04-25T10:21:17;99142.00;;;21.16;28.50
80137;BME280;69466;55.948;37.484;2023-04-25T10:23:43;99129.31;;;21.15;28.01
80137;BME280;69466;55.948;37.484;2023-04-25T10:26:12;99126.91;;;21.09;28.05
80137;BME280;69466;55.948;37.484;2023-04-25T10:28:59;99137.88;;;21.14;28.22
80137;BME280;69466;55.948;37.484;2023-04-25T10:31:26;99137.88;;;20.95;28.49
80137;BME280;69466;55.948;37.484;2023-04-25T10:33:53;99114.47;;;20.93;28.63
80137;BME280;69466;55.948;37.484;2023-04-25T10:36:22;99131.09;;;20.88;28.58
80137;BME280;69466;55.948;37.484;2023-04-25T10:38:50;99113.88;;;20.96;28.17
80137;BME280;69466;55.948;37.484;2023-04-25T10:41:19;99128.34;;;20.88;28.65
80137;BME280;69466;55.948;37.484;2023-04-25T10:43:46;99115.44;;;20.83;28.58
80137;BME280;69466;55.948;37.484;2023-04-25T10:46:17;99102.47;;;20.65;27.83
80137;BME280;69466;55.948;37.484;2023-04-25T10:48:49;99107.91;;;20.51;27.80
80137;BME280;69466;55.948;37.484;2023-04-25T10:56:31;99089.50;;;20.47;28.07
80137;BME280;69466;55.948;37.484;2023-04-25T10:59:13;99101.88;;;20.68;27.84
80137;BME280;69466;55.948;37.484;2023-04-25T11:01:44;99092.13;;;20.75;28.16
80137;BME280;69466;55.948;37.484;2023-04-25T11:04:31;99095.53;;;20.67;27.74
80137;BME280;69466;55.948;37.484;2023-04-25T11:09:38;99088.31;;;20.34;28.95
80137;BME280;69466;55.948;37.484;2023-04-25T11:12:07;99063.81;;;20.27;29.02
80137;BME280;69466;55.948;37.484;2023-04-25T11:14:35;99069.16;;;20.43;28.83
80137;BME280;69466;55.948;37.484;2023-04-25T11:17:13;99077.06;;;20.49;28.54
80137;BME280;69466;55.948;37.484;2023-04-25T11:19:39;99076.63;;;20.42;28.25
80137;BME280;69466;55.948;37.484;2023-04-25T11:22:05;99058.38;;;20.22;28.37
80137;BME280;69466;55.948;37.484;2023-04-25T11:24:33;99075.81;;;20.18;28.64
80137;BME280;69466;55.948;37.484;2023-04-25T11:27:01;99074.84;;;20.27;28.11
80137;BME280;69466;55.948;37.484;2023-04-25T11:29:31;99056.72;;;20.03;29.16
80137;BME280;69466;55.948;37.484;2023-04-25T11:31:57;99054.97;;;20.12;29.24
80137;BME280;69466;55.948;37.484;2023-04-25T11:34:24;99059.41;;;20.08;28.85
80137;BME280;69466;55.948;37.484;2023-04-25T11:36:51;99042.31;;;19.87;28.60
80137;BME280;69466;55.948;37.484;2023-04-25T11:39:19;99040.00;;;19.94;28.05
80137;BME280;69466;55.948;37.484;2023-04-25T11:41:46;99025.97;;;19.96;27.46
80137;BME280;69466;55.948;37.484;2023-04-25T11:44:15;99028.59;;;20.06;27.38
80137;BME280;69466;55.948;37.484;2023-04-25T11:46:43;99033.72;;;20.12;27.95
80137;BME280;69466;55.948;37.484;2023-04-25T11:49:09;99029.03;;;20.13;28.93
80137;BME280;69466;55.948;37.484;2023-04-25T11:51:39;99027.91;;;20.14;29.34
80137;BME280;69466;55.948;37.484;2023-04-25T11:54:09;99006.41;;;20.16;29.33
80137;BME280;69466;55.948;37.484;2023-04-25T11:56:35;99008.56;;;20.19;29.34
80137;BME280;69466;55.948;37.484;2023-04-25T11:59:03;99022.06;;;20.20;29.41
80137;BME280;69466;55.948;37.484;2023-04-25T12:01:38;99002.69;;;20.07;29.12
80137;BME280;69466;55.948;37.484;2023-04-25T12:07:17;98986.31;;;20.15;29.16
80137;BME280;69466;55.948;37.484;2023-04-25T12:09:51;98992.56;;;20.21;29.10
80137;BME280;69466;55.948;37.484;2023-04-25T12:12:18;98984.38;;;20.16;28.52
80137;BME280;69466;55.948;37.484;2023-04-25T12:14:46;99005.44;;;20.07;28.83
80137;BME280;69466;55.948;37.484;2023-04-25T12:17:13;98990.81;;;19.87;28.82
80137;BME280;69466;55.948;37.484;2023-04-25T12:19:40;98990.13;;;19.77;29.03
80137;BME280;69466;55.948;37.484;2023-04-25T12:22:22;98991.78;;;19.78;29.01
80137;BME280;69466;55.948;37.484;2023-04-25T12:24:49;98989.31;;;19.76;29.26
80137;BME280;69466;55.948;37.484;2023-04-25T12:27:16;98973.81;;;19.80;29.16
80137;BME280;69466;55.948;37.484;2023-04-25T12:29:54;98974.44;;;19.77;29.22
80137;BME280;69466;55.948;37.484;2023-04-25T12:32:22;98978.88;;;19.73;29.33
80137;BME280;69466;55.948;37.484;2023-04-25T12:34:47;98974.31;;;19.64;29.39
80137;BME280;69466;55.948;37.484;2023-04-25T12:37:13;98948.50;;;19.60;29.40
80137;BME280;69466;55.948;37.484;2023-04-25T12:39:40;98962.66;;;19.72;29.31
80137;BME280;69466;55.948;37.484;2023-04-25T12:42:06;98962.53;;;19.82;29.25
80137;BME280;69466;55.948;37.484;2023-04-25T12:44:34;98948.31;;;19.75;29.37
80137;BME280;69466;55.948;37.484;2023-04-25T12:47:00;98966.22;;;19.72;29.32
80137;BME280;69466;55.948;37.484;2023-04-25T12:49:26;98947.47;;;19.56;29.41
80137;BME280;69466;55.948;37.484;2023-04-25T12:51:52;98932.41;;;19.48;29.45
80137;BME280;69466;55.948;37.484;2023-04-25T12:54:18;98941.13;;;19.55;29.50
80137;BME280;69466;55.948;37.484;2023-04-25T12:56:43;98932.16;;;19.68;29.24
80137;BME280;69466;55.948;37.484;2023-04-25T12:59:09;98946.19;;;19.67;29.24
80137;BME280;69466;55.948;37.484;2023-04-25T13:01:35;98932.59;;;19.75;29.05
80137;BME280;69466;55.948;37.484;2023-04-25T13:04:01;98929.06;;;19.75;29.18
80137;BME280;69466;55.948;37.484;2023-04-25T13:06:27;98930.81;;;19.66;29.09
80137;BME280;69466;55.948;37.484;2023-04-25T13:08:53;98927.31;;;19.60;29.08
80137;BME280;69466;55.948;37.484;2023-04-25T13:11:19;98913.22;;;19.62;28.90
80137;BME280;69466;55.948;37.484;2023-04-25T13:13:45;98908.88;;;19.61;28.84
80137;BME280;69466;55.948;37.484;2023-04-25T13:16:11;98914.06;;;19.62;29.40
80137;BME280;69466;55.948;37.484;2023-04-25T13:18:39;98897.41;;;19.72;29.04
80137;BME280;69466;55.948;37.484;2023-04-25T13:21:06;98919.50;;;19.67;29.61